Time;durP1;ratioP1;P1;durP2;ratioP2;P2;SDS_P1;SDS_P2;PMS_P1;PMS_P2;Temp;Humidity;BMP_temperature;BMP_pressure;BME280_temperature;BME280_humidity;BME280_pressure;Samples;Min_cycle;Max_cycle;Signal;HPM_P1;HPM_P2
2024/02/06 15:23:15;;;;;;;20.42;6.70;;;13.40;74.70;;;;;;7610562;19;20390;-80
2024/02/06 15:25:47;;;;;;;23.70;6.38;;;12.70;76.50;;;;;;7623461;19;20127;-81
2024/02/06 15:28:20;;;;;;;17.40;6.88;;;12.30;77.70;;;;;;7617336;19;20015;-80
2024/02/06 15:30:52;;;;;;;15.88;6.68;;;12.00;78.80;;;;;;7644221;19;20018;-79
2024/02/06 15:33:25;;;;;;;10.77;5.75;;;11.80;79.90;;;;;;7593045;19;20014;-78
2024/02/06 15:35:57;;;;;;;16.95;6.60;;;11.60;80.50;;;;;;7588153;19;20052;-78
2024/02/06 15:38:29;;;;;;;14.40;7.30;;;11.30;81.40;;;;;;7616957;19;20048;-78
2024/02/06 15:41:04;;;;;;;16.77;6.00;;;11.00;82.40;;;;;;7620629;19;20018;-79
2024/02/06 15:43:36;;;;;;;25.75;7.43;;;10.80;83.20;;;;;;7601908;19;20022;-77
2024/02/06 15:46:09;;;;;;;26.83;7.30;;;10.60;84.00;;;;;;7611574;19;20637;-78
2024/02/06 15:48:46;;;;;;;14.82;6.53;;;10.60;84.40;;;;;;7617328;19;20022;-77
2024/02/06 15:51:25;;;;;;;22.90;6.95;;;10.50;85.10;;;;;;7628413;19;20006;-78
2024/02/06 15:53:57;;;;;;;16.40;6.40;;;10.40;85.70;;;;;;7620012;19;20014;-78
2024/02/06 15:56:37;;;;;;;14.85;6.90;;;10.30;86.40;;;;;;7610121;19;20021;-78
2024/02/06 15:59:09;;;;;;;12.25;6.10;;;10.20;87.10;;;;;;7630380;19;21124;-77
2024/02/06 16:01:48;;;;;;;13.45;6.65;;;10.10;87.30;;;;;;7629401;19;20715;-79
2024/02/06 16:04:21;;;;;;;14.70;7.50;;;9.90;88.00;;;;;;7623837;19;20007;-80
2024/02/06 16:06:53;;;;;;;21.85;8.13;;;9.80;89.20;;;;;;7643993;19;20025;-77
2024/02/06 16:09:26;;;;;;;13.07;7.07;;;9.70;89.50;;;;;;7642427;19;20021;-78
2024/02/06 16:12:02;;;;;;;18.33;8.40;;;9.60;89.80;;;;;;7628039;19;20025;-78
2024/02/06 16:14:34;;;;;;;18.95;8.50;;;9.60;90.20;;;;;;7639446;19;20022;-77
2024/02/06 16:17:06;;;;;;;18.63;9.27;;;9.50;90.30;;;;;;7614176;19;20089;-78
2024/02/06 16:19:40;;;;;;;16.17;8.52;;;9.40;90.70;;;;;;7637939;19;20029;-77
2024/02/06 16:22:13;;;;;;;17.98;9.20;;;9.40;91.10;;;;;;7627976;19;20018;-78
2024/02/06 16:24:46;;;;;;;17.58;10.95;;;9.30;91.30;;;;;;7639049;19;20018;-75
2024/02/06 16:27:19;;;;;;;23.65;8.70;;;9.20;91.70;;;;;;7620335;19;20046;-74
2024/02/06 16:29:51;;;;;;;15.18;8.27;;;9.00;92.00;;;;;;7621922;19;20052;-78
2024/02/06 16:32:24;;;;;;;24.00;9.65;;;9.00;92.20;;;;;;7624766;19;20098;-78
2024/02/06 16:34:56;;;;;;;11.43;6.77;;;8.90;92.30;;;;;;7582740;19;20422;-78
2024/02/06 16:37:39;;;;;;;13.98;6.07;;;8.90;92.30;;;;;;7586906;19;20036;-77
2024/02/06 16:40:14;;;;;;;21.08;7.15;;;8.70;92.60;;;;;;7594670;19;20522;-79
2024/02/06 16:42:46;;;;;;;15.20;6.43;;;8.60;93.00;;;;;;7581444;19;20033;-79
2024/02/06 16:45:19;;;;;;;16.52;6.38;;;8.50;93.20;;;;;;7582605;19;20018;-79
2024/02/06 16:47:51;;;;;;;14.52;6.35;;;8.30;93.60;;;;;;7589605;19;20018;-79
2024/02/06 16:50:24;;;;;;;20.40;6.95;;;8.20;93.90;;;;;;7584729;19;20018;-80
2024/02/06 16:52:57;;;;;;;20.98;7.80;;;8.10;94.40;;;;;;7553594;19;20014;-81
2024/02/06 16:55:29;;;;;;;16.48;8.20;;;8.10;94.40;;;;;;7624670;19;20010;-82
2024/02/06 16:58:03;;;;;;;18.02;8.68;;;8.00;94.90;;;;;;7579326;19;20019;-81
2024/02/06 17:00:38;;;;;;;24.33;9.98;;;8.00;95.20;;;;;;7574874;19;20515;-82
2024/02/06 17:03:10;;;;;;;22.05;9.85;;;7.80;95.50;;;;;;7583921;19;20030;-81
2024/02/06 17:05:43;;;;;;;18.20;8.88;;;7.80;95.70;;;;;;7582514;19;20010;-81
2024/02/06 17:08:16;;;;;;;18.40;7.95;;;7.70;96.00;;;;;;7578971;19;20580;-79
2024/02/06 17:10:49;;;;;;;15.88;7.45;;;7.60;96.60;;;;;;7587512;19;20077;-80
2024/02/06 17:13:21;;;;;;;12.73;6.88;;;7.50;96.80;;;;;;7589977;19;20014;-80
2024/02/06 17:15:54;;;;;;;19.02;8.82;;;7.40;97.30;;;;;;7596491;19;20043;-80
2024/02/06 17:18:29;;;;;;;24.40;9.75;;;7.30;97.70;;;;;;7600230;19;20006;-83
2024/02/06 17:21:01;;;;;;;21.27;8.88;;;7.20;98.30;;;;;;7598006;19;20050;-83
2024/02/06 17:23:34;;;;;;;17.88;9.07;;;7.10;98.80;;;;;;7582212;19;20053;-79
2024/02/06 17:26:06;;;;;;;23.05;8.85;;;7.10;98.90;;;;;;7579520;19;20025;-80
2024/02/06 17:28:39;;;;;;;21.55;8.30;;;7.10;98.90;;;;;;7590580;19;20085;-80
2024/02/06 17:31:12;;;;;;;22.02;9.43;;;7.10;99.10;;;;;;7573985;19;21223;-81
2024/02/06 17:33:44;;;;;;;23.40;9.65;;;7.00;99.40;;;;;;7593936;19;20050;-80
2024/02/06 17:36:17;;;;;;;22.13;8.73;;;6.90;99.90;;;;;;7599932;19;20035;-81
2024/02/06 17:38:50;;;;;;;16.55;9.60;;;6.70;99.90;;;;;;7593478;19;20026;-81
2024/02/06 17:41:23;;;;;;;20.63;9.82;;;6.70;99.90;;;;;;7593156;19;20010;-80
2024/02/06 17:43:55;;;;;;;19.77;9.63;;;6.60;99.90;;;;;;7582754;19;20022;-80
2024/02/06 17:46:27;;;;;;;21.85;9.73;;;6.50;99.90;;;;;;7586130;19;20023;-80
2024/02/06 17:49:00;;;;;;;17.53;9.17;;;6.50;99.90;;;;;;7590307;19;21326;-80
2024/02/06 17:51:33;;;;;;;18.77;9.95;;;6.40;99.90;;;;;;7601686;19;20022;-80
2024/02/06 17:54:05;;;;;;;18.80;10.07;;;6.30;99.90;;;;;;7585538;19;20011;-80
2024/02/06 17:56:37;;;;;;;22.13;10.10;;;6.30;99.90;;;;;;7592969;19;20044;-80
2024/02/06 17:59:12;;;;;;;17.88;9.70;;;6.30;99.90;;;;;;7595859;19;20643;-80
2024/02/06 18:01:45;;;;;;;29.65;11.25;;;6.40;99.90;;;;;;7597695;19;20423;-79
2024/02/06 18:04:18;;;;;;;20.95;10.57;;;6.50;99.90;;;;;;7592338;19;20016;-81
2024/02/06 18:06:51;;;;;;;24.17;12.05;;;6.40;99.90;;;;;;7594326;19;20056;-79
2024/02/06 18:09:24;;;;;;;23.63;10.60;;;6.30;99.90;;;;;;7577682;19;20010;-79
2024/02/06 18:11:58;;;;;;;28.40;10.25;;;6.30;99.90;;;;;;7603590;19;20362;-80
2024/02/06 18:14:31;;;;;;;14.05;7.72;;;6.20;99.90;;;;;;7608130;19;20015;-78
2024/02/06 18:19:46;;;;;;;18.17;7.88;;;6.30;99.90;;;;;;7611057;19;20018;-80
2024/02/06 18:22:21;;;;;;;19.08;7.70;;;6.30;99.90;;;;;;7604661;19;20079;-79
2024/02/06 18:24:53;;;;;;;17.38;7.43;;;6.30;99.90;;;;;;7610994;19;20018;-80
2024/02/06 18:27:26;;;;;;;16.75;7.22;;;6.40;99.90;;;;;;7612771;19;20725;-78
2024/02/06 18:29:59;;;;;;;18.00;6.97;;;6.50;99.90;;;;;;7604882;19;20011;-80
2024/02/06 18:32:31;;;;;;;14.70;6.85;;;6.50;99.90;;;;;;7602547;19;20493;-81
2024/02/06 18:35:04;;;;;;;16.38;6.43;;;6.50;99.90;;;;;;7588165;19;20707;-80
2024/02/06 18:37:36;;;;;;;15.57;6.20;;;6.40;99.90;;;;;;7599043;19;20024;-80
2024/02/06 18:40:10;;;;;;;11.50;5.75;;;6.40;99.90;;;;;;7600594;19;20026;-80
2024/02/06 18:42:42;;;;;;;11.98;5.90;;;6.40;99.90;;;;;;7596452;19;20010;-78
2024/02/06 18:45:15;;;;;;;10.70;6.00;;;6.50;99.90;;;;;;7583879;19;20011;-81
2024/02/06 18:47:47;;;;;;;12.77;5.90;;;6.40;99.90;;;;;;7596120;19;20014;-80
2024/02/06 18:50:20;;;;;;;9.50;5.47;;;6.50;99.90;;;;;;7582582;19;20097;-80
2024/02/06 18:52:52;;;;;;;10.70;5.13;;;6.50;99.90;;;;;;7599450;19;20472;-79
2024/02/06 18:55:30;;;;;;;14.02;5.70;;;6.40;99.90;;;;;;7597676;19;20044;-80
2024/02/06 18:58:03;;;;;;;11.70;5.28;;;6.50;99.90;;;;;;7580576;19;20081;-80
2024/02/06 19:00:36;;;;;;;14.32;6.43;;;6.50;99.90;;;;;;7586134;19;20010;-82
2024/02/06 19:03:08;;;;;;;11.30;5.75;;;6.50;99.90;;;;;;7577061;19;20046;-80
2024/02/06 19:05:40;;;;;;;15.65;7.40;;;6.50;99.90;;;;;;7599206;19;21111;-80
2024/02/06 19:08:13;;;;;;;14.57;8.20;;;6.50;99.90;;;;;;7560277;19;20432;-81
2024/02/06 19:10:45;;;;;;;11.65;7.20;;;6.50;99.90;;;;;;7596923;19;20017;-80
2024/02/06 19:13:20;;;;;;;9.75;6.28;;;6.50;99.90;;;;;;7586621;19;20022;-81
2024/02/06 19:15:53;;;;;;;11.50;5.82;;;6.40;99.90;;;;;;7595416;19;20052;-81
2024/02/06 19:18:26;;;;;;;12.93;6.35;;;6.30;99.90;;;;;;7583152;19;20011;-83
2024/02/06 19:20:59;;;;;;;8.80;4.90;;;6.40;99.90;;;;;;7576025;19;20015;-80
2024/02/06 19:23:33;;;;;;;11.10;5.15;;;6.30;99.90;;;;;;7109386;19;10000554;-82
2024/02/06 19:26:05;;;;;;;10.00;5.20;;;6.40;99.90;;;;;;7080174;19;9999857;-80
2024/02/06 19:28:38;;;;;;;14.32;6.90;;;6.50;99.90;;;;;;7566146;19;20015;-80
2024/02/06 19:31:10;;;;;;;12.00;7.03;;;6.40;99.90;;;;;;7576865;19;20484;-80
2024/02/06 19:33:46;;;;;;;14.15;6.63;;;6.40;99.90;;;;;;7638139;19;20014;-80
2024/02/06 19:36:21;;;;;;;11.25;5.43;;;6.30;99.90;;;;;;7638452;19;20010;-79
2024/02/06 19:38:53;;;;;;;8.20;4.32;;;6.30;99.90;;;;;;7632874;19;20019;-80
2024/02/06 19:41:28;;;;;;;7.95;5.15;;;6.30;99.90;;;;;;7633973;19;20018;-80
2024/02/06 19:44:01;;;;;;;12.20;5.95;;;6.30;99.90;;;;;;7639024;19;20046;-81
2024/02/06 19:46:33;;;;;;;;;;;6.20;99.90;;;;;;7632244;19;20027;-80
2024/02/06 19:49:06;;;;;;;12.20;4.90;;;6.30;99.90;;;;;;7634036;19;19939;-80
2024/02/06 19:51:39;;;;;;;8.18;5.03;;;6.20;99.90;;;;;;7629322;19;20022;-80
2024/02/06 19:54:12;;;;;;;11.68;5.55;;;6.10;99.90;;;;;;7634001;19;20090;-80
2024/02/06 19:56:45;;;;;;;10.30;5.22;;;6.10;99.90;;;;;;7638336;19;20039;-80
2024/02/06 19:59:18;;;;;;;9.70;5.22;;;6.10;99.90;;;;;;7637833;19;20035;-80
2024/02/06 20:01:52;;;;;;;7.47;4.75;;;6.10;99.90;;;;;;7640447;19;20038;-80
2024/02/06 20:04:26;;;;;;;8.88;4.35;;;6.10;99.90;;;;;;7629982;19;21816;-79
2024/02/06 20:07:00;;;;;;;12.43;5.40;;;6.10;99.90;;;;;;7627395;19;20014;-80
2024/02/06 20:09:33;;;;;;;9.75;5.03;;;6.00;99.90;;;;;;7634721;19;20015;-81
2024/02/06 20:12:06;;;;;;;15.80;6.22;;;6.10;99.90;;;;;;7645577;19;20017;-83
2024/02/06 20:14:38;;;;;;;6.93;4.30;;;6.10;99.90;;;;;;7640805;19;20037;-82
2024/02/06 20:17:11;;;;;;;8.15;4.30;;;6.00;99.90;;;;;;7644589;19;20336;-81
2024/02/06 20:19:44;;;;;;;7.25;4.28;;;6.00;99.90;;;;;;7635317;19;20029;-82
2024/02/06 20:22:16;;;;;;;11.82;4.70;;;5.90;99.90;;;;;;7639374;19;20030;-80
2024/02/06 20:24:49;;;;;;;7.80;3.90;;;5.90;99.90;;;;;;7641031;19;20495;-80
2024/02/06 20:27:21;;;;;;;7.53;4.30;;;6.00;99.90;;;;;;7639759;19;20032;-80
2024/02/06 20:29:54;;;;;;;6.70;4.10;;;6.10;99.90;;;;;;7640276;19;20025;-81
2024/02/06 20:32:28;;;;;;;10.15;5.43;;;6.00;99.90;;;;;;7647480;19;20026;-80
2024/02/06 20:35:01;;;;;;;7.10;4.03;;;6.00;99.90;;;;;;7656794;19;20043;-79
2024/02/06 20:37:34;;;;;;;8.20;4.55;;;5.90;99.90;;;;;;7641987;19;20042;-78
2024/02/06 20:40:09;;;;;;;10.75;3.67;;;5.90;99.90;;;;;;7640372;19;20069;-79
2024/02/06 20:42:42;;;;;;;5.90;3.58;;;6.00;99.90;;;;;;7647031;19;20575;-78
